createdAt,value
2023-01-10T00:04:35.447Z,79.20
2023-01-10T00:09:39.710Z,79.59
2023-01-10T00:14:42.601Z,79.21
2023-01-10T00:19:45.478Z,79.28
2023-01-10T00:24:49.813Z,79.03
2023-01-10T00:29:53.913Z,78.74
2023-01-10T00:34:56.781Z,78.96
2023-01-10T00:40:01.081Z,79.14
2023-01-10T00:45:04.160Z,78.55
2023-01-10T00:50:08.548Z,78.73
2023-01-10T00:55:12.796Z,78.60
2023-01-10T01:00:16.307Z,79.30
2023-01-10T01:05:20.141Z,79.06
2023-01-10T01:10:27.542Z,78.16
2023-01-10T01:15:30.564Z,78.29
2023-01-10T01:20:34.123Z,78.21
2023-01-10T01:25:38.572Z,78.45
2023-01-10T01:30:41.445Z,78.37
2023-01-10T01:35:45.286Z,78.86
2023-01-10T01:40:49.569Z,79.03
2023-01-10T01:45:53.599Z,79.60
2023-01-10T01:51:05.724Z,78.85
2023-01-10T01:56:16.037Z,78.99
2023-01-10T02:01:19.325Z,79.34
2023-01-10T02:06:24.854Z,79.42
2023-01-10T02:11:31.236Z,79.16
2023-01-10T02:16:34.139Z,79.58
2023-01-10T02:22:25.564Z,79.26
2023-01-10T02:27:42.299Z,79.18
2023-01-10T02:33:04.066Z,79.53
2023-01-10T02:38:18.251Z,80.63
2023-01-10T02:43:25.225Z,83.40
2023-01-10T02:48:29.746Z,83.38
2023-01-10T02:53:37.983Z,84.32
2023-01-10T02:58:59.860Z,83.88
2023-01-10T03:04:10.148Z,83.56
2023-01-10T03:09:21.926Z,83.58
2023-01-10T03:14:28.230Z,82.97
2023-01-10T03:19:36.165Z,83.92
2023-01-10T03:24:42.453Z,83.60
2023-01-10T03:29:50.477Z,83.50
2023-01-10T03:34:55.330Z,83.67
2023-01-10T03:40:06.263Z,82.74
2023-01-10T03:45:13.526Z,83.23
2023-01-10T03:50:21.106Z,83.05
2023-01-10T03:55:27.773Z,82.73
2023-01-10T04:00:30.972Z,83.37
2023-01-10T04:05:35.226Z,82.96
2023-01-10T04:10:38.165Z,81.80
2023-01-10T04:15:41.148Z,82.41
2023-01-10T04:20:45.514Z,82.81
2023-01-10T04:25:48.594Z,82.65
2023-01-10T04:30:51.518Z,82.39
2023-01-10T04:35:55.805Z,83.05
2023-01-10T04:40:59.007Z,82.68
2023-01-10T04:46:02.041Z,82.68
2023-01-10T04:51:06.796Z,82.36
2023-01-10T04:56:15.591Z,82.40
2023-01-10T05:01:20.954Z,82.70
2023-01-10T05:06:26.076Z,82.50
2023-01-10T05:11:28.966Z,82.30
2023-01-10T05:16:31.954Z,82.77
2023-01-10T05:21:36.248Z,82.71
2023-01-10T05:26:39.177Z,82.77
2023-01-10T05:31:42.463Z,82.99
2023-01-10T05:36:46.718Z,82.98
2023-01-10T05:41:49.649Z,82.49
2023-01-10T05:46:52.635Z,82.15
2023-01-10T05:51:56.927Z,81.98
2023-01-10T05:56:59.897Z,82.19
2023-01-10T06:02:02.919Z,81.50
2023-01-10T06:07:07.228Z,81.74
2023-01-10T06:12:10.080Z,81.61
2023-01-10T06:17:13.115Z,82.73
2023-01-10T06:22:17.357Z,82.19
2023-01-10T06:27:20.256Z,82.95
2023-01-10T06:32:23.120Z,82.92
2023-01-10T06:37:27.412Z,82.95
2023-01-10T06:42:30.299Z,82.18
2023-01-10T06:47:33.170Z,82.49
2023-01-10T06:52:38.052Z,83.25
2023-01-10T06:57:40.919Z,82.59
2023-01-10T07:02:43.844Z,83.04
2023-01-10T07:07:48.138Z,83.56
2023-01-10T07:12:51.057Z,83.17
2023-01-10T07:17:54.032Z,83.32
2023-01-10T07:23:00.069Z,83.47
2023-01-10T07:28:02.987Z,84.40
2023-01-10T07:33:06.684Z,84.14
2023-01-10T07:38:10.939Z,84.03
2023-01-10T07:43:13.923Z,84.22
2023-01-10T07:48:16.813Z,84.24
2023-01-10T07:53:21.073Z,85.65
2023-01-10T07:58:23.987Z,85.55
2023-01-10T08:03:27.649Z,85.57
2023-01-10T08:08:32.234Z,85.53
2023-01-10T08:13:35.282Z,84.83
2023-01-10T08:18:42.382Z,84.95
2023-01-10T08:23:46.674Z,84.87
2023-01-10T08:28:49.589Z,84.56
2023-01-10T08:33:52.626Z,84.91
2023-01-10T08:38:57.447Z,84.05
2023-01-10T08:44:00.829Z,84.17
2023-01-10T08:49:03.855Z,83.96
2023-01-10T08:54:08.437Z,84.19
2023-01-10T08:59:11.545Z,83.93
2023-01-10T09:04:14.394Z,83.44
2023-01-10T09:09:18.930Z,82.78
2023-01-10T09:14:21.990Z,82.48
2023-01-10T09:19:24.980Z,81.61
2023-01-10T09:24:29.225Z,83.11
2023-01-10T09:29:32.201Z,82.22
2023-01-10T09:34:35.136Z,84.31
2023-01-10T09:39:39.396Z,85.08
2023-01-10T09:44:51.436Z,85.23
2023-01-10T09:50:07.624Z,85.11
2023-01-10T09:55:21.644Z,85.90
2023-01-10T10:00:30.993Z,85.08
2023-01-10T10:05:33.933Z,84.33
2023-01-10T10:10:41.196Z,83.43
2023-01-10T10:15:52.080Z,83.71
2023-01-10T10:21:02.966Z,82.89
2023-01-10T10:26:17.932Z,83.36
2023-01-10T10:31:32.607Z,82.53
2023-01-10T10:36:43.123Z,81.50
2023-01-10T10:41:52.499Z,80.84
2023-01-10T10:46:59.007Z,79.51
2023-01-10T10:52:05.169Z,77.62
2023-01-10T10:57:11.263Z,79.11
2023-01-10T11:02:23.774Z,79.22
2023-01-10T11:07:29.727Z,78.92
2023-01-10T11:12:36.382Z,79.12
2023-01-10T11:17:41.094Z,79.08
2023-01-10T11:22:49.645Z,78.17
2023-01-10T11:27:56.898Z,78.11
2023-01-10T11:33:03.156Z,78.05
2023-01-10T11:38:08.682Z,78.13
2023-01-10T11:43:27.115Z,76.92
2023-01-10T11:49:04.533Z,76.20
2023-01-10T11:54:08.632Z,75.34
2023-01-10T11:59:16.514Z,73.73
2023-01-10T12:04:21.670Z,73.89
2023-01-10T12:09:56.256Z,73.77
2023-01-10T12:15:22.029Z,73.60
2023-01-10T12:20:29.502Z,72.82
2023-01-10T12:25:35.770Z,73.23
2023-01-10T12:30:43.590Z,73.30
2023-01-10T12:35:53.209Z,74.01
2023-01-10T12:41:02.103Z,72.60
2023-01-10T12:46:26.370Z,72.72
2023-01-10T12:51:36.847Z,72.14
2023-01-10T12:56:40.974Z,71.14
2023-01-10T13:01:48.722Z,70.72
2023-01-10T13:06:55.327Z,70.37
2023-01-10T13:12:03.872Z,71.67
2023-01-10T13:17:17.626Z,71.20
2023-01-10T13:22:24.093Z,71.53
2023-01-10T13:27:30.992Z,71.66
2023-01-10T13:32:36.295Z,70.74
2023-01-10T13:37:43.166Z,70.25
2023-01-10T13:43:03.267Z,69.91
2023-01-10T13:48:27.704Z,71.47
2023-01-10T13:53:45.505Z,70.02
2023-01-10T13:59:05.934Z,70.75
2023-01-10T14:04:18.294Z,69.41
2023-01-10T14:09:40.822Z,69.48
2023-01-10T14:14:50.652Z,70.19
2023-01-10T14:20:16.558Z,70.12
2023-01-10T14:25:22.593Z,70.46
2023-01-10T14:30:30.494Z,69.79
2023-01-10T14:35:38.231Z,69.80
2023-01-10T14:40:46.208Z,71.03
2023-01-10T14:45:53.298Z,70.49
2023-01-10T14:51:17.013Z,70.47
2023-01-10T14:56:24.185Z,70.01
2023-01-10T15:01:30.940Z,70.22
2023-01-10T15:06:52.448Z,70.18
2023-01-10T15:12:00.705Z,69.89
2023-01-10T15:17:06.493Z,70.26
2023-01-10T15:22:19.510Z,70.74
2023-01-10T15:27:23.859Z,70.35
2023-01-10T15:32:30.600Z,70.76
2023-01-10T15:37:39.254Z,70.22
2023-01-10T15:42:43.550Z,70.86
2023-01-10T15:47:55.128Z,71.49
2023-01-10T15:53:00.825Z,70.46
2023-01-10T15:58:06.336Z,70.83
2023-01-10T16:03:19.595Z,70.86
2023-01-10T16:08:26.002Z,71.08
2023-01-10T16:13:31.712Z,71.88
2023-01-10T16:18:35.247Z,72.08
2023-01-10T16:23:38.568Z,70.66
2023-01-10T16:28:42.822Z,71.17
2023-01-10T16:33:46.462Z,70.20
2023-01-10T16:38:50.150Z,70.82
2023-01-10T16:43:54.433Z,70.49
2023-01-10T16:48:57.425Z,71.29
2023-01-10T16:54:00.767Z,72.28
2023-01-10T16:59:06.467Z,72.34
2023-01-10T17:04:12.735Z,72.99
2023-01-10T17:09:22.487Z,72.67
2023-01-10T17:14:26.848Z,72.82
2023-01-10T17:19:29.923Z,73.75
2023-01-10T17:24:32.819Z,73.08
2023-01-10T17:29:37.330Z,73.66
2023-01-10T17:34:40.230Z,73.91
2023-01-10T17:39:43.124Z,73.78
2023-01-10T17:44:47.421Z,73.15
2023-01-10T17:49:50.333Z,73.47
2023-01-10T17:54:53.204Z,73.40
2023-01-10T17:59:57.522Z,74.11
2023-01-10T18:05:00.659Z,72.73
2023-01-10T18:10:03.575Z,73.57
2023-01-10T18:15:09.438Z,74.33
2023-01-10T18:20:13.220Z,74.21
2023-01-10T18:25:17.627Z,74.46
2023-01-10T18:30:22.672Z,74.20
2023-01-10T18:35:26.803Z,74.23
2023-01-10T18:40:29.737Z,74.66
2023-01-10T18:45:34.021Z,75.20
2023-01-10T18:50:36.972Z,75.55
2023-01-10T18:55:39.920Z,75.48
2023-01-10T19:00:44.554Z,75.34
2023-01-10T19:05:47.912Z,75.44
2023-01-10T19:11:11.905Z,75.30
2023-01-10T19:16:16.737Z,75.36
2023-01-10T19:21:20.204Z,75.33
2023-01-10T19:26:24.183Z,74.31
2023-01-10T19:31:30.250Z,76.68
2023-01-10T19:36:34.687Z,74.71
2023-01-10T19:41:39.347Z,75.75
2023-01-10T19:46:45.412Z,76.22
2023-01-10T19:51:51.247Z,74.70
2023-01-10T19:56:55.171Z,74.95
2023-01-10T20:02:00.872Z,73.28
2023-01-10T20:07:04.199Z,73.48
2023-01-10T20:12:07.530Z,74.85
2023-01-10T20:17:11.776Z,73.38
2023-01-10T20:22:14.642Z,73.99
2023-01-10T20:27:17.538Z,73.33
2023-01-10T20:32:23.192Z,75.65
2023-01-10T20:37:26.089Z,76.61
2023-01-10T20:42:29.066Z,77.05
2023-01-10T20:47:33.523Z,76.87
2023-01-10T20:52:36.428Z,76.05
2023-01-10T20:57:39.334Z,74.67
2023-01-10T21:02:43.610Z,76.23
2023-01-10T21:07:46.876Z,75.82
2023-01-10T21:12:49.992Z,77.55
2023-01-10T21:17:54.286Z,77.58
2023-01-10T21:22:59.863Z,77.68
2023-01-10T21:28:03.091Z,76.77
2023-01-10T21:33:08.419Z,78.65
2023-01-10T21:38:11.311Z,77.87
2023-01-10T21:43:14.281Z,78.14
2023-01-10T21:48:18.526Z,78.76
2023-01-10T21:53:22.757Z,79.10
2023-01-10T21:58:25.678Z,78.63
2023-01-10T22:03:31.254Z,79.14
2023-01-10T22:08:34.173Z,79.34
2023-01-10T22:13:37.294Z,79.61
2023-01-10T22:18:41.512Z,78.50
2023-01-10T22:23:45.268Z,79.91
2023-01-10T22:28:48.178Z,79.41
2023-01-10T22:33:52.481Z,78.65
2023-01-10T22:38:55.453Z,78.44
2023-01-10T22:43:58.392Z,78.20
2023-01-10T22:49:02.621Z,77.44
2023-01-10T22:54:05.836Z,76.84
2023-01-10T22:59:08.702Z,78.07
2023-01-10T23:04:13.040Z,78.23
2023-01-10T23:09:16.059Z,79.10
2023-01-10T23:14:18.972Z,78.26
2023-01-10T23:19:23.217Z,80.13
2023-01-10T23:24:26.192Z,79.96
2023-01-10T23:29:29.109Z,79.83
2023-01-10T23:34:33.355Z,80.45
2023-01-10T23:39:36.257Z,79.77
2023-01-10T23:44:39.188Z,80.65
2023-01-10T23:49:43.454Z,81.17
2023-01-10T23:54:46.387Z,81.10
2023-01-10T23:59:49.246Z,81.29
